sensor_id;sensor_type;location;lat;lon;timestamp;pressure;altitude;pressure_sealevel;temperature
31921;BMP280;66485;52.128;4.436;2023-08-06T00:01:12;100540.53;;;23.41
31921;BMP280;66485;52.128;4.436;2023-08-06T00:03:37;100538.41;;;23.45
31921;BMP280;66485;52.128;4.436;2023-08-06T00:06:05;100538.41;;;23.45
31921;BMP280;66485;52.128;4.436;2023-08-06T00:08:31;100525.38;;;23.40
31921;BMP280;66485;52.128;4.436;2023-08-06T00:10:56;100532.94;;;23.45
31921;BMP280;66485;52.128;4.436;2023-08-06T00:13:21;100536.16;;;23.43
31921;BMP280;66485;52.128;4.436;2023-08-06T00:15:47;100530.38;;;23.41
31921;BMP280;66485;52.128;4.436;2023-08-06T00:18:12;100523.25;;;23.44
31921;BMP280;66485;52.128;4.436;2023-08-06T00:20:40;100526.16;;;23.40
31921;BMP280;66485;52.128;4.436;2023-08-06T00:23:07;100526.16;;;23.40
31921;BMP280;66485;52.128;4.436;2023-08-06T00:25:32;100526.59;;;23.39
31921;BMP280;66485;52.128;4.436;2023-08-06T00:27:58;100534.47;;;23.37
31921;BMP280;66485;52.128;4.436;2023-08-06T00:30:23;100532.97;;;23.35
31921;BMP280;66485;52.128;4.436;2023-08-06T00:32:48;100534.34;;;23.40
31921;BMP280;66485;52.128;4.436;2023-08-06T00:35:14;100526.16;;;23.40
31921;BMP280;66485;52.128;4.436;2023-08-06T00:37:39;100529.59;;;23.41
31921;BMP280;66485;52.128;4.436;2023-08-06T00:40:06;100540.69;;;23.37
31921;BMP280;66485;52.128;4.436;2023-08-06T00:42:32;100540.69;;;23.37
31921;BMP280;66485;52.128;4.436;2023-08-06T00:44:57;100534.94;;;23.35
31921;BMP280;66485;52.128;4.436;2023-08-06T00:47:23;100530.50;;;23.38
31921;BMP280;66485;52.128;4.436;2023-08-06T00:49:58;100525.03;;;23.38
31921;BMP280;66485;52.128;4.436;2023-08-06T00:52:23;100535.84;;;23.41
31921;BMP280;66485;52.128;4.436;2023-08-06T00:54:48;100530.09;;;23.39
31921;BMP280;66485;52.128;4.436;2023-08-06T00:57:14;100527.19;;;23.43
31921;BMP280;66485;52.128;4.436;2023-08-06T00:59:39;100527.19;;;23.43
31921;BMP280;66485;52.128;4.436;2023-08-06T01:02:05;100539.94;;;23.37
31921;BMP280;66485;52.128;4.436;2023-08-06T01:04:30;100532.06;;;23.39
31921;BMP280;66485;52.128;4.436;2023-08-06T01:10:14;100529.47;;;23.35
31921;BMP280;66485;52.128;4.436;2023-08-06T01:15:41;100533.25;;;23.38
31921;BMP280;66485;52.128;4.436;2023-08-06T01:18:07;100537.34;;;23.33
31921;BMP280;66485;52.128;4.436;2023-08-06T01:20:32;100538.72;;;23.38
31921;BMP280;66485;52.128;4.436;2023-08-06T01:22:58;100536.75;;;23.38
31921;BMP280;66485;52.128;4.436;2023-08-06T01:25:30;100536.75;;;23.38
31921;BMP280;66485;52.128;4.436;2023-08-06T01:28:05;100532.19;;;23.35
31921;BMP280;66485;52.128;4.436;2023-08-06T01:30:37;100533.41;;;23.34
31921;BMP280;66485;52.128;4.436;2023-08-06T01:33:04;100536.91;;;23.34
31921;BMP280;66485;52.128;4.436;2023-08-06T01:35:32;100536.91;;;23.34
31921;BMP280;66485;52.128;4.436;2023-08-06T01:37:59;100548.16;;;23.37
31921;BMP280;66485;52.128;4.436;2023-08-06T01:40:25;100544.66;;;23.36
31921;BMP280;66485;52.128;4.436;2023-08-06T01:42:52;100544.66;;;23.36
31921;BMP280;66485;52.128;4.436;2023-08-06T01:45:17;100549.97;;;23.40
31921;BMP280;66485;52.128;4.436;2023-08-06T01:47:42;100546.16;;;23.37
31921;BMP280;66485;52.128;4.436;2023-08-06T01:50:08;100547.69;;;23.38
31921;BMP280;66485;52.128;4.436;2023-08-06T01:52:33;100547.69;;;23.38
31921;BMP280;66485;52.128;4.436;2023-08-06T01:54:59;100554.34;;;23.37
31921;BMP280;66485;52.128;4.436;2023-08-06T01:57:24;100554.34;;;23.37
31921;BMP280;66485;52.128;4.436;2023-08-06T01:59:49;100559.06;;;23.37
31921;BMP280;66485;52.128;4.436;2023-08-06T02:02:14;100562.53;;;23.37
31921;BMP280;66485;52.128;4.436;2023-08-06T02:04:40;100564.53;;;23.37
31921;BMP280;66485;52.128;4.436;2023-08-06T02:07:05;100564.53;;;23.37
31921;BMP280;66485;52.128;4.436;2023-08-06T02:09:31;100566.97;;;23.34
31921;BMP280;66485;52.128;4.436;2023-08-06T02:11:56;100566.97;;;23.34
31921;BMP280;66485;52.128;4.436;2023-08-06T02:14:21;100566.50;;;23.36
31921;BMP280;66485;52.128;4.436;2023-08-06T02:16:47;100575.16;;;23.34
31921;BMP280;66485;52.128;4.436;2023-08-06T02:19:12;100575.16;;;23.34
31921;BMP280;66485;52.128;4.436;2023-08-06T02:21:37;100570.63;;;23.31
31921;BMP280;66485;52.128;4.436;2023-08-06T02:24:03;100577.00;;;23.28
31921;BMP280;66485;52.128;4.436;2023-08-06T02:26:28;100577.00;;;23.28
31921;BMP280;66485;52.128;4.436;2023-08-06T02:28:54;100581.25;;;23.29
31921;BMP280;66485;52.128;4.436;2023-08-06T02:31:19;100585.97;;;23.29
31921;BMP280;66485;52.128;4.436;2023-08-06T02:33:44;100585.06;;;23.32
31921;BMP280;66485;52.128;4.436;2023-08-06T02:36:10;100581.84;;;23.33
31921;BMP280;66485;52.128;4.436;2023-08-06T02:38:35;100581.84;;;23.33
31921;BMP280;66485;52.128;4.436;2023-08-06T02:41:04;100580.63;;;23.34
31921;BMP280;66485;52.128;4.436;2023-08-06T02:43:30;100580.63;;;23.34
31921;BMP280;66485;52.128;4.436;2023-08-06T02:45:59;100587.78;;;23.32
31921;BMP280;66485;52.128;4.436;2023-08-06T02:48:25;100582.75;;;23.30
31921;BMP280;66485;52.128;4.436;2023-08-06T02:50:50;100582.75;;;23.30
31921;BMP280;66485;52.128;4.436;2023-08-06T02:53:16;100571.66;;;23.34
31921;BMP280;66485;52.128;4.436;2023-08-06T02:55:48;100586.72;;;23.29
31921;BMP280;66485;52.128;4.436;2023-08-06T02:58:16;100580.50;;;23.29
31921;BMP280;66485;52.128;4.436;2023-08-06T03:00:42;100584.28;;;23.31
31921;BMP280;66485;52.128;4.436;2023-08-06T03:03:08;100584.28;;;23.31
31921;BMP280;66485;52.128;4.436;2023-08-06T03:05:33;100587.03;;;23.31
31921;BMP280;66485;52.128;4.436;2023-08-06T03:07:59;100579.75;;;23.28
31921;BMP280;66485;52.128;4.436;2023-08-06T03:10:24;100576.66;;;23.26
31921;BMP280;66485;52.128;4.436;2023-08-06T03:12:49;100577.00;;;23.28
31921;BMP280;66485;52.128;4.436;2023-08-06T03:15:15;100576.66;;;23.26
31921;BMP280;66485;52.128;4.436;2023-08-06T03:17:41;100576.66;;;23.26
31921;BMP280;66485;52.128;4.436;2023-08-06T03:20:07;100582.47;;;23.28
31921;BMP280;66485;52.128;4.436;2023-08-06T03:22:32;100582.47;;;23.28
31921;BMP280;66485;52.128;4.436;2023-08-06T03:24:58;100591.09;;;23.27
31921;BMP280;66485;52.128;4.436;2023-08-06T03:27:23;100593.06;;;23.26
31921;BMP280;66485;52.128;4.436;2023-08-06T03:29:51;100590.06;;;23.24
31921;BMP280;66485;52.128;4.436;2023-08-06T03:32:17;100589.56;;;23.26
31921;BMP280;66485;52.128;4.436;2023-08-06T03:34:42;100600.97;;;23.24
31921;BMP280;66485;52.128;4.436;2023-08-06T03:37:08;100607.97;;;23.25
31921;BMP280;66485;52.128;4.436;2023-08-06T03:39:33;100607.97;;;23.25
31921;BMP280;66485;52.128;4.436;2023-08-06T03:41:59;100604.47;;;23.25
31921;BMP280;66485;52.128;4.436;2023-08-06T03:44:24;100605.69;;;23.24
31921;BMP280;66485;52.128;4.436;2023-08-06T03:46:49;100610.38;;;23.23
31921;BMP280;66485;52.128;4.436;2023-08-06T03:49:15;100624.38;;;23.25
31921;BMP280;66485;52.128;4.436;2023-08-06T03:51:40;100611.16;;;23.24
31921;BMP280;66485;52.128;4.436;2023-08-06T03:54:05;100616.63;;;23.24
31921;BMP280;66485;52.128;4.436;2023-08-06T03:56:31;100616.63;;;23.24
31921;BMP280;66485;52.128;4.436;2023-08-06T03:58:56;100622.38;;;23.26
31921;BMP280;66485;52.128;4.436;2023-08-06T04:01:21;100627.53;;;23.24
31921;BMP280;66485;52.128;4.436;2023-08-06T04:03:47;100623.00;;;23.21
31921;BMP280;66485;52.128;4.436;2023-08-06T04:06:12;100623.00;;;23.21
31921;BMP280;66485;52.128;4.436;2023-08-06T04:08:38;100620.72;;;23.19
31921;BMP280;66485;52.128;4.436;2023-08-06T04:11:03;100623.59;;;23.25
31921;BMP280;66485;52.128;4.436;2023-08-06T04:13:28;100631.47;;;23.23
31921;BMP280;66485;52.128;4.436;2023-08-06T04:15:54;100628.31;;;23.24
31921;BMP280;66485;52.128;4.436;2023-08-06T04:18:19;100628.31;;;23.24
31921;BMP280;66485;52.128;4.436;2023-08-06T04:20:45;100634.22;;;23.23
31921;BMP280;66485;52.128;4.436;2023-08-06T04:23:11;100634.22;;;23.23
31921;BMP280;66485;52.128;4.436;2023-08-06T04:25:36;100629.22;;;23.21
31921;BMP280;66485;52.128;4.436;2023-08-06T04:28:02;100636.19;;;23.22
31921;BMP280;66485;52.128;4.436;2023-08-06T04:30:27;100636.50;;;23.24
31921;BMP280;66485;52.128;4.436;2023-08-06T04:32:52;100645.91;;;23.23
31921;BMP280;66485;52.128;4.436;2023-08-06T04:35:18;100643.19;;;23.23
31921;BMP280;66485;52.128;4.436;2023-08-06T04:37:43;100641.66;;;23.22
31921;BMP280;66485;52.128;4.436;2023-08-06T04:40:10;100646.34;;;23.22
31921;BMP280;66485;52.128;4.436;2023-08-06T04:42:35;100646.34;;;23.22
31921;BMP280;66485;52.128;4.436;2023-08-06T04:45:01;100657.59;;;23.24
31921;BMP280;66485;52.128;4.436;2023-08-06T04:47:27;100658.38;;;23.24
31921;BMP280;66485;52.128;4.436;2023-08-06T04:49:53;100664.28;;;23.23
31921;BMP280;66485;52.128;4.436;2023-08-06T04:52:18;100664.28;;;23.23
31921;BMP280;66485;52.128;4.436;2023-08-06T04:54:44;100653.34;;;23.23
31921;BMP280;66485;52.128;4.436;2023-08-06T04:57:09;100673.22;;;23.23
31921;BMP280;66485;52.128;4.436;2023-08-06T04:59:35;100674.75;;;23.24
31921;BMP280;66485;52.128;4.436;2023-08-06T05:02:00;100672.03;;;23.24
31921;BMP280;66485;52.128;4.436;2023-08-06T05:04:26;100673.56;;;23.25
31921;BMP280;66485;52.128;4.436;2023-08-06T05:06:51;100677.78;;;23.26
31921;BMP280;66485;52.128;4.436;2023-08-06T05:09:16;100685.56;;;23.28
31921;BMP280;66485;52.128;4.436;2023-08-06T05:11:41;100687.66;;;23.24
31921;BMP280;66485;52.128;4.436;2023-08-06T05:14:07;100687.66;;;23.24
31921;BMP280;66485;52.128;4.436;2023-08-06T05:16:32;100693.56;;;23.22
31921;BMP280;66485;52.128;4.436;2023-08-06T05:18:57;100693.56;;;23.22
31921;BMP280;66485;52.128;4.436;2023-08-06T05:21:23;100700.28;;;23.21
31921;BMP280;66485;52.128;4.436;2023-08-06T05:23:48;100700.28;;;23.21
31921;BMP280;66485;52.128;4.436;2023-08-06T05:26:13;100711.66;;;23.20
31921;BMP280;66485;52.128;4.436;2023-08-06T05:28:41;100710.88;;;23.19
31921;BMP280;66485;52.128;4.436;2023-08-06T05:31:06;100710.88;;;23.19
31921;BMP280;66485;52.128;4.436;2023-08-06T05:33:32;100708.63;;;23.18
31921;BMP280;66485;52.128;4.436;2023-08-06T05:35:57;100715.59;;;23.19
31921;BMP280;66485;52.128;4.436;2023-08-06T05:38:23;100715.59;;;23.19
31921;BMP280;66485;52.128;4.436;2023-08-06T05:40:48;100722.75;;;23.25
31921;BMP280;66485;52.128;4.436;2023-08-06T05:43:14;100722.41;;;23.23
31921;BMP280;66485;52.128;4.436;2023-08-06T05:45:39;100725.91;;;23.24
31921;BMP280;66485;52.128;4.436;2023-08-06T05:48:08;100732.91;;;23.25
31921;BMP280;66485;52.128;4.436;2023-08-06T05:50:34;100725.78;;;23.27
31921;BMP280;66485;52.128;4.436;2023-08-06T05:52:59;100725.78;;;23.27
31921;BMP280;66485;52.128;4.436;2023-08-06T05:55:24;100726.34;;;23.22
31921;BMP280;66485;52.128;4.436;2023-08-06T05:57:50;100732.16;;;23.24
31921;BMP280;66485;52.128;4.436;2023-08-06T06:00:17;100733.97;;;23.27
31921;BMP280;66485;52.128;4.436;2023-08-06T06:02:43;100733.97;;;23.27
31921;BMP280;66485;52.128;4.436;2023-08-06T06:05:09;100740.63;;;23.26
31921;BMP280;66485;52.128;4.436;2023-08-06T06:07:34;100741.41;;;23.27
31921;BMP280;66485;52.128;4.436;2023-08-06T06:10:00;100747.94;;;23.29
31921;BMP280;66485;52.128;4.436;2023-08-06T06:12:25;100747.94;;;23.29
31921;BMP280;66485;52.128;4.436;2023-08-06T06:14:51;100755.06;;;23.27
31921;BMP280;66485;52.128;4.436;2023-08-06T06:17:16;100743.38;;;23.26
31921;BMP280;66485;52.128;4.436;2023-08-06T06:19:42;100750.38;;;23.27
31921;BMP280;66485;52.128;4.436;2023-08-06T06:22:07;100760.53;;;23.27
31921;BMP280;66485;52.128;4.436;2023-08-06T06:24:32;100753.41;;;23.29
31921;BMP280;66485;52.128;4.436;2023-08-06T06:26:58;100761.31;;;23.27
31921;BMP280;66485;52.128;4.436;2023-08-06T06:29:23;100761.31;;;23.27
31921;BMP280;66485;52.128;4.436;2023-08-06T06:31:48;100764.34;;;23.29
31921;BMP280;66485;52.128;4.436;2023-08-06T06:34:14;100771.66;;;23.32
31921;BMP280;66485;52.128;4.436;2023-08-06T06:36:39;100771.31;;;23.30
31921;BMP280;66485;52.128;4.436;2023-08-06T06:39:04;100770.28;;;23.28
31921;BMP280;66485;52.128;4.436;2023-08-06T06:41:30;100773.91;;;23.25
31921;BMP280;66485;52.128;4.436;2023-08-06T06:43:58;100773.31;;;23.30
31921;BMP280;66485;52.128;4.436;2023-08-06T06:46:23;100775.59;;;23.31
31921;BMP280;66485;52.128;4.436;2023-08-06T06:48:48;100786.66;;;23.37
31921;BMP280;66485;52.128;4.436;2023-08-06T06:51:14;100783.19;;;23.37
31921;BMP280;66485;52.128;4.436;2023-08-06T06:53:39;100783.19;;;23.37
31921;BMP280;66485;52.128;4.436;2023-08-06T06:56:05;100783.03;;;23.31
31921;BMP280;66485;52.128;4.436;2023-08-06T06:58:31;100775.59;;;23.31
31921;BMP280;66485;52.128;4.436;2023-08-06T07:00:57;100791.41;;;23.46
31921;BMP280;66485;52.128;4.436;2023-08-06T07:03:22;100791.41;;;23.46
31921;BMP280;66485;52.128;4.436;2023-08-06T07:05:50;100787.47;;;23.47
31921;BMP280;66485;52.128;4.436;2023-08-06T07:08:15;100795.94;;;23.49
31921;BMP280;66485;52.128;4.436;2023-08-06T07:10:41;100799.47;;;23.49
31921;BMP280;66485;52.128;4.436;2023-08-06T07:13:07;100799.47;;;23.49
31921;BMP280;66485;52.128;4.436;2023-08-06T07:15:33;100809.34;;;23.56
31921;BMP280;66485;52.128;4.436;2023-08-06T07:17:58;100804.16;;;23.49
31921;BMP280;66485;52.128;4.436;2023-08-06T07:20:24;100804.03;;;23.52
31921;BMP280;66485;52.128;4.436;2023-08-06T07:22:49;100804.03;;;23.52
31921;BMP280;66485;52.128;4.436;2023-08-06T07:25:15;100806.47;;;23.50
31921;BMP280;66485;52.128;4.436;2023-08-06T07:27:41;100813.91;;;23.50
31921;BMP280;66485;52.128;4.436;2023-08-06T07:30:07;100813.91;;;23.50
31921;BMP280;66485;52.128;4.436;2023-08-06T07:32:32;100818.78;;;23.55
31921;BMP280;66485;52.128;4.436;2023-08-06T07:34:58;100821.03;;;23.47
31921;BMP280;66485;52.128;4.436;2023-08-06T07:37:26;100819.66;;;23.52
31921;BMP280;66485;52.128;4.436;2023-08-06T07:39:53;100819.66;;;23.52
31921;BMP280;66485;52.128;4.436;2023-08-06T07:42:19;100819.66;;;23.52
31921;BMP280;66485;52.128;4.436;2023-08-06T07:44:53;100820.13;;;23.50
31921;BMP280;66485;52.128;4.436;2023-08-06T07:47:18;100825.13;;;23.52
31921;BMP280;66485;52.128;4.436;2023-08-06T07:49:44;100824.25;;;23.55
31921;BMP280;66485;52.128;4.436;2023-08-06T07:52:09;100831.25;;;23.65
31921;BMP280;66485;52.128;4.436;2023-08-06T07:54:35;100829.72;;;23.64
31921;BMP280;66485;52.128;4.436;2023-08-06T07:57:00;100829.72;;;23.64
31921;BMP280;66485;52.128;4.436;2023-08-06T07:59:25;100826.38;;;23.60
31921;BMP280;66485;52.128;4.436;2023-08-06T08:01:51;100826.81;;;23.58
31921;BMP280;66485;52.128;4.436;2023-08-06T08:04:16;100826.81;;;23.58
31921;BMP280;66485;52.128;4.436;2023-08-06T08:06:41;100826.38;;;23.69
31921;BMP280;66485;52.128;4.436;2023-08-06T08:09:07;100819.69;;;23.61
31921;BMP280;66485;52.128;4.436;2023-08-06T08:11:32;100822.09;;;23.59
31921;BMP280;66485;52.128;4.436;2023-08-06T08:13:58;100828.78;;;23.58
31921;BMP280;66485;52.128;4.436;2023-08-06T08:16:23;100828.78;;;23.58
31921;BMP280;66485;52.128;4.436;2023-08-06T08:18:48;100839.44;;;23.65
31921;BMP280;66485;52.128;4.436;2023-08-06T08:21:14;100833.50;;;23.66
31921;BMP280;66485;52.128;4.436;2023-08-06T08:23:39;100841.91;;;23.72
31921;BMP280;66485;52.128;4.436;2023-08-06T08:26:04;100838.81;;;23.70
31921;BMP280;66485;52.128;4.436;2023-08-06T08:30:55;100839.78;;;23.85
31921;BMP280;66485;52.128;4.436;2023-08-06T08:33:21;100838.84;;;23.79
31921;BMP280;66485;52.128;4.436;2023-08-06T08:35:47;100837.97;;;23.82
31921;BMP280;66485;52.128;4.436;2023-08-06T08:38:12;100847.34;;;23.81
31921;BMP280;66485;52.128;4.436;2023-08-06T08:40:46;100844.19;;;23.83
31921;BMP280;66485;52.128;4.436;2023-08-06T08:43:14;100844.19;;;23.83
31921;BMP280;66485;52.128;4.436;2023-08-06T08:45:42;100839.00;;;23.85
31921;BMP280;66485;52.128;4.436;2023-08-06T08:48:10;100852.53;;;23.88
31921;BMP280;66485;52.128;4.436;2023-08-06T08:50:37;100852.53;;;23.88
31921;BMP280;66485;52.128;4.436;2023-08-06T08:53:02;100857.56;;;23.90
31921;BMP280;66485;52.128;4.436;2023-08-06T08:55:28;100857.56;;;23.90
31921;BMP280;66485;52.128;4.436;2023-08-06T08:57:54;100857.28;;;23.88
31921;BMP280;66485;52.128;4.436;2023-08-06T09:00:19;100857.84;;;23.92
31921;BMP280;66485;52.128;4.436;2023-08-06T09:02:45;100853.16;;;24.01
31921;BMP280;66485;52.128;4.436;2023-08-06T09:05:11;100853.16;;;24.01
31921;BMP280;66485;52.128;4.436;2023-08-06T09:07:41;100865.59;;;24.02
31921;BMP280;66485;52.128;4.436;2023-08-06T09:10:11;100865.59;;;24.02
31921;BMP280;66485;52.128;4.436;2023-08-06T09:12:39;100863.53;;;24.15
31921;BMP280;66485;52.128;4.436;2023-08-06T09:15:04;100871.41;;;24.23
31921;BMP280;66485;52.128;4.436;2023-08-06T09:17:30;100863.06;;;24.08
31921;BMP280;66485;52.128;4.436;2023-08-06T09:19:55;100868.22;;;24.06
31921;BMP280;66485;52.128;4.436;2023-08-06T09:22:21;100872.19;;;24.14
31921;BMP280;66485;52.128;4.436;2023-08-06T09:24:46;100876.59;;;24.11
31921;BMP280;66485;52.128;4.436;2023-08-06T09:27:13;100876.59;;;24.11
31921;BMP280;66485;52.128;4.436;2023-08-06T09:29:43;100874.75;;;24.17
31921;BMP280;66485;52.128;4.436;2023-08-06T09:32:08;100886.47;;;24.27
31921;BMP280;66485;52.128;4.436;2023-08-06T09:34:33;100886.91;;;24.35
31921;BMP280;66485;52.128;4.436;2023-08-06T09:36:59;100887.06;;;24.31
31921;BMP280;66485;52.128;4.436;2023-08-06T09:39:29;100887.06;;;24.31
31921;BMP280;66485;52.128;4.436;2023-08-06T09:41:59;100905.78;;;24.33
31921;BMP280;66485;52.128;4.436;2023-08-06T09:44:26;100905.78;;;24.33
31921;BMP280;66485;52.128;4.436;2023-08-06T09:46:56;100901.50;;;24.32
31921;BMP280;66485;52.128;4.436;2023-08-06T09:49:26;100903.66;;;24.37
31921;BMP280;66485;52.128;4.436;2023-08-06T09:51:52;100910.03;;;24.43
31921;BMP280;66485;52.128;4.436;2023-08-06T09:54:22;100911.56;;;24.44
31921;BMP280;66485;52.128;4.436;2023-08-06T09:56:48;100911.56;;;24.44
31921;BMP280;66485;52.128;4.436;2023-08-06T09:59:13;100920.22;;;24.42
31921;BMP280;66485;52.128;4.436;2023-08-06T10:01:39;100923.59;;;24.46
31921;BMP280;66485;52.128;4.436;2023-08-06T10:04:06;100923.44;;;24.50
31921;BMP280;66485;52.128;4.436;2023-08-06T10:06:35;100929.47;;;24.45
31921;BMP280;66485;52.128;4.436;2023-08-06T10:09:02;100929.47;;;24.45
31921;BMP280;66485;52.128;4.436;2023-08-06T10:11:28;100936.34;;;24.49
31921;BMP280;66485;52.128;4.436;2023-08-06T10:13:58;100936.34;;;24.49
31921;BMP280;66485;52.128;4.436;2023-08-06T10:16:25;100939.25;;;24.55
31921;BMP280;66485;52.128;4.436;2023-08-06T10:18:51;100942.72;;;24.55
31921;BMP280;66485;52.128;4.436;2023-08-06T10:21:17;100943.81;;;24.58
31921;BMP280;66485;52.128;4.436;2023-08-06T10:23:42;100953.53;;;24.59
31921;BMP280;66485;52.128;4.436;2023-08-06T10:26:08;100950.63;;;24.62
31921;BMP280;66485;52.128;4.436;2023-08-06T10:28:37;100952.63;;;24.62
31921;BMP280;66485;52.128;4.436;2023-08-06T10:31:03;100952.63;;;24.62
31921;BMP280;66485;52.128;4.436;2023-08-06T10:33:42;100944.72;;;24.64
31921;BMP280;66485;52.128;4.436;2023-08-06T10:36:10;100947.16;;;24.62
31921;BMP280;66485;52.128;4.436;2023-08-06T10:38:47;100950.81;;;24.59
31921;BMP280;66485;52.128;4.436;2023-08-06T10:41:29;100950.81;;;24.59
31921;BMP280;66485;52.128;4.436;2023-08-06T10:44:08;100948.19;;;24.55
31921;BMP280;66485;52.128;4.436;2023-08-06T10:46:34;100951.09;;;24.52
31921;BMP280;66485;52.128;4.436;2023-08-06T10:48:59;100951.09;;;24.52
31921;BMP280;66485;52.128;4.436;2023-08-06T10:51:25;100954.00;;;24.57
31921;BMP280;66485;52.128;4.436;2023-08-06T10:53:51;100953.38;;;24.72
31921;BMP280;66485;52.128;4.436;2023-08-06T10:56:18;100957.78;;;24.78
31921;BMP280;66485;52.128;4.436;2023-08-06T10:58:45;100957.78;;;24.78
31921;BMP280;66485;52.128;4.436;2023-08-06T11:01:11;100964.47;;;24.77
31921;BMP280;66485;52.128;4.436;2023-08-06T11:03:37;100975.44;;;24.86
31921;BMP280;66485;52.128;4.436;2023-08-06T11:06:03;100966.78;;;24.79
31921;BMP280;66485;52.128;4.436;2023-08-06T11:08:32;100966.78;;;24.79
31921;BMP280;66485;52.128;4.436;2023-08-06T11:11:10;100966.59;;;24.91
31921;BMP280;66485;52.128;4.436;2023-08-06T11:13:46;100967.97;;;24.96
31921;BMP280;66485;52.128;4.436;2023-08-06T11:16:19;100967.97;;;24.96
31921;BMP280;66485;52.128;4.436;2023-08-06T11:18:44;100966.31;;;24.89
31921;BMP280;66485;52.128;4.436;2023-08-06T11:21:10;100973.63;;;24.83
31921;BMP280;66485;52.128;4.436;2023-08-06T11:23:37;100973.63;;;24.83
31921;BMP280;66485;52.128;4.436;2023-08-06T11:26:03;100965.66;;;24.94
31921;BMP280;66485;52.128;4.436;2023-08-06T11:28:28;100965.66;;;24.94
31921;BMP280;66485;52.128;4.436;2023-08-06T11:30:54;100972.22;;;24.97
31921;BMP280;66485;52.128;4.436;2023-08-06T11:33:22;100974.47;;;24.98
31921;BMP280;66485;52.128;4.436;2023-08-06T11:35:50;100979.94;;;25.08
31921;BMP280;66485;52.128;4.436;2023-08-06T11:38:16;100963.94;;;25.15
31921;BMP280;66485;52.128;4.436;2023-08-06T11:40:45;100966.41;;;25.13
31921;BMP280;66485;52.128;4.436;2023-08-06T11:43:12;100966.41;;;25.13
31921;BMP280;66485;52.128;4.436;2023-08-06T11:45:38;100963.97;;;25.06
31921;BMP280;66485;52.128;4.436;2023-08-06T11:48:03;100971.41;;;25.24
31921;BMP280;66485;52.128;4.436;2023-08-06T11:50:30;100971.41;;;25.24
31921;BMP280;66485;52.128;4.436;2023-08-06T11:53:00;100980.94;;;25.37
31921;BMP280;66485;52.128;4.436;2023-08-06T11:55:27;100980.94;;;25.37
31921;BMP280;66485;52.128;4.436;2023-08-06T11:57:56;100974.53;;;25.40
31921;BMP280;66485;52.128;4.436;2023-08-06T12:00:24;100966.25;;;25.49
31921;BMP280;66485;52.128;4.436;2023-08-06T12:02:49;100967.97;;;25.47
31921;BMP280;66485;52.128;4.436;2023-08-06T12:05:21;100967.97;;;25.47
31921;BMP280;66485;52.128;4.436;2023-08-06T12:07:49;100987.38;;;25.25
31921;BMP280;66485;52.128;4.436;2023-08-06T12:10:16;100987.38;;;25.25
31921;BMP280;66485;52.128;4.436;2023-08-06T12:12:42;100986.81;;;25.12
31921;BMP280;66485;52.128;4.436;2023-08-06T12:15:08;101003.56;;;25.05
31921;BMP280;66485;52.128;4.436;2023-08-06T12:17:34;101003.56;;;25.05
31921;BMP280;66485;52.128;4.436;2023-08-06T12:20:00;100997.59;;;25.16
31921;BMP280;66485;52.128;4.436;2023-08-06T12:22:26;101007.81;;;25.24
31921;BMP280;66485;52.128;4.436;2023-08-06T12:24:51;101007.81;;;25.24
31921;BMP280;66485;52.128;4.436;2023-08-06T12:27:17;101010.53;;;25.33
31921;BMP280;66485;52.128;4.436;2023-08-06T12:29:47;101010.53;;;25.33
31921;BMP280;66485;52.128;4.436;2023-08-06T12:32:13;101009.88;;;25.38
31921;BMP280;66485;52.128;4.436;2023-08-06T12:34:40;101010.41;;;25.61
31921;BMP280;66485;52.128;4.436;2023-08-06T12:37:06;101008.56;;;25.67
31921;BMP280;66485;52.128;4.436;2023-08-06T12:39:35;101010.31;;;25.79
31921;BMP280;66485;52.128;4.436;2023-08-06T12:42:01;101010.31;;;25.79
31921;BMP280;66485;52.128;4.436;2023-08-06T12:44:27;101016.72;;;25.43
31921;BMP280;66485;52.128;4.436;2023-08-06T12:46:53;101025.00;;;25.34
31921;BMP280;66485;52.128;4.436;2023-08-06T12:49:19;101024.09;;;25.28
31921;BMP280;66485;52.128;4.436;2023-08-06T12:51:48;101022.25;;;25.25
31921;BMP280;66485;52.128;4.436;2023-08-06T12:54:14;101021.34;;;25.28
31921;BMP280;66485;52.128;4.436;2023-08-06T12:56:39;101030.03;;;25.26
31921;BMP280;66485;52.128;4.436;2023-08-06T12:59:04;101034.28;;;25.18
31921;BMP280;66485;52.128;4.436;2023-08-06T13:01:30;101029.25;;;25.26
31921;BMP280;66485;52.128;4.436;2023-08-06T13:03:55;101029.25;;;25.26
31921;BMP280;66485;52.128;4.436;2023-08-06T13:06:20;101042.31;;;25.40
31921;BMP280;66485;52.128;4.436;2023-08-06T13:08:46;101044.03;;;25.37
31921;BMP280;66485;52.128;4.436;2023-08-06T13:11:11;101046.00;;;25.37
31921;BMP280;66485;52.128;4.436;2023-08-06T13:13:36;101061.97;;;25.38
31921;BMP280;66485;52.128;4.436;2023-08-06T13:16:02;101061.97;;;25.38
31921;BMP280;66485;52.128;4.436;2023-08-06T13:18:27;101060.94;;;25.27
31921;BMP280;66485;52.128;4.436;2023-08-06T13:20:54;101069.94;;;25.27
31921;BMP280;66485;52.128;4.436;2023-08-06T13:23:20;101068.53;;;25.32
31921;BMP280;66485;52.128;4.436;2023-08-06T13:25:45;101079.50;;;25.32
31921;BMP280;66485;52.128;4.436;2023-08-06T13:28:11;101105.84;;;25.47
31921;BMP280;66485;52.128;4.436;2023-08-06T13:30:36;101088.63;;;25.47
31921;BMP280;66485;52.128;4.436;2023-08-06T13:33:10;101095.31;;;25.55
31921;BMP280;66485;52.128;4.436;2023-08-06T13:35:35;101095.16;;;25.49
31921;BMP280;66485;52.128;4.436;2023-08-06T13:38:00;101101.41;;;25.50
31921;BMP280;66485;52.128;4.436;2023-08-06T13:40:28;101106.78;;;25.35
31921;BMP280;66485;52.128;4.436;2023-08-06T13:42:53;101120.63;;;25.32
31921;BMP280;66485;52.128;4.436;2023-08-06T13:45:19;101113.81;;;25.27
31921;BMP280;66485;52.128;4.436;2023-08-06T13:47:44;101126.56;;;25.21
31921;BMP280;66485;52.128;4.436;2023-08-06T13:50:10;101139.69;;;25.26
31921;BMP280;66485;52.128;4.436;2023-08-06T13:52:35;101146.09;;;25.23
31921;BMP280;66485;52.128;4.436;2023-08-06T13:55:01;101152.03;;;25.22
31921;BMP280;66485;52.128;4.436;2023-08-06T13:57:26;101152.03;;;25.22
31921;BMP280;66485;52.128;4.436;2023-08-06T13:59:51;101146.22;;;25.29